sensor_id;sensor_type;location;lat;lon;timestamp;temperature;humidity
4840;DHT22;2434;48.486;7.964;2023-12-20T00:02:08;6.40;84.10
4840;DHT22;2434;48.486;7.964;2023-12-20T00:04:38;6.40;84.30
4840;DHT22;2434;48.486;7.964;2023-12-20T00:07:06;6.40;84.60
4840;DHT22;2434;48.486;7.964;2023-12-20T00:09:34;6.30;85.10
4840;DHT22;2434;48.486;7.964;2023-12-20T00:12:03;6.30;85.30
4840;DHT22;2434;48.486;7.964;2023-12-20T00:14:31;6.30;85.80
4840;DHT22;2434;48.486;7.964;2023-12-20T00:16:59;6.30;85.70
4840;DHT22;2434;48.486;7.964;2023-12-20T00:19:27;6.30;86.10
4840;DHT22;2434;48.486;7.964;2023-12-20T00:21:57;6.30;86.20
4840;DHT22;2434;48.486;7.964;2023-12-20T00:24:26;6.30;86.40
4840;DHT22;2434;48.486;7.964;2023-12-20T00:26:54;6.30;86.50
4840;DHT22;2434;48.486;7.964;2023-12-20T00:29:21;6.30;87.00
4840;DHT22;2434;48.486;7.964;2023-12-20T00:31:49;6.30;87.20
4840;DHT22;2434;48.486;7.964;2023-12-20T00:34:18;6.30;87.60
4840;DHT22;2434;48.486;7.964;2023-12-20T00:36:46;6.30;88.00
4840;DHT22;2434;48.486;7.964;2023-12-20T00:39:15;6.20;88.20
4840;DHT22;2434;48.486;7.964;2023-12-20T00:41:43;6.20;88.50
4840;DHT22;2434;48.486;7.964;2023-12-20T00:44:11;6.20;88.70
4840;DHT22;2434;48.486;7.964;2023-12-20T00:46:39;6.20;88.70
4840;DHT22;2434;48.486;7.964;2023-12-20T00:49:07;6.20;88.60
4840;DHT22;2434;48.486;7.964;2023-12-20T00:51:36;6.20;88.90
4840;DHT22;2434;48.486;7.964;2023-12-20T00:54:04;6.20;89.20
4840;DHT22;2434;48.486;7.964;2023-12-20T00:56:33;6.10;89.30
4840;DHT22;2434;48.486;7.964;2023-12-20T00:59:02;6.10;89.60
4840;DHT22;2434;48.486;7.964;2023-12-20T01:01:30;6.10;89.90
4840;DHT22;2434;48.486;7.964;2023-12-20T01:04:00;6.10;90.20
4840;DHT22;2434;48.486;7.964;2023-12-20T01:06:28;6.10;90.10
4840;DHT22;2434;48.486;7.964;2023-12-20T01:08:56;6.10;90.10
4840;DHT22;2434;48.486;7.964;2023-12-20T01:11:24;6.20;90.10
4840;DHT22;2434;48.486;7.964;2023-12-20T01:13:54;6.20;90.00
4840;DHT22;2434;48.486;7.964;2023-12-20T01:16:22;6.10;90.00
4840;DHT22;2434;48.486;7.964;2023-12-20T01:18:50;6.20;90.00
4840;DHT22;2434;48.486;7.964;2023-12-20T01:21:18;6.10;91.00
4840;DHT22;2434;48.486;7.964;2023-12-20T01:23:46;6.10;90.40
4840;DHT22;2434;48.486;7.964;2023-12-20T01:26:14;6.10;90.50
4840;DHT22;2434;48.486;7.964;2023-12-20T01:28:43;6.10;90.80
4840;DHT22;2434;48.486;7.964;2023-12-20T01:31:13;6.10;91.00
4840;DHT22;2434;48.486;7.964;2023-12-20T01:33:41;6.10;91.00
4840;DHT22;2434;48.486;7.964;2023-12-20T01:36:09;6.20;91.20
4840;DHT22;2434;48.486;7.964;2023-12-20T01:38:38;6.10;91.00
4840;DHT22;2434;48.486;7.964;2023-12-20T01:41:06;6.20;91.80
4840;DHT22;2434;48.486;7.964;2023-12-20T01:43:34;6.10;91.30
4840;DHT22;2434;48.486;7.964;2023-12-20T01:46:18;6.20;91.20
4840;DHT22;2434;48.486;7.964;2023-12-20T01:48:47;6.10;91.40
4840;DHT22;2434;48.486;7.964;2023-12-20T01:51:16;6.10;91.70
4840;DHT22;2434;48.486;7.964;2023-12-20T01:53:44;6.10;91.90
4840;DHT22;2434;48.486;7.964;2023-12-20T01:56:13;6.10;92.00
4840;DHT22;2434;48.486;7.964;2023-12-20T01:58:44;6.10;92.00
4840;DHT22;2434;48.486;7.964;2023-12-20T02:01:12;6.10;92.30
4840;DHT22;2434;48.486;7.964;2023-12-20T02:03:42;6.10;92.40
4840;DHT22;2434;48.486;7.964;2023-12-20T02:06:11;6.20;92.50
4840;DHT22;2434;48.486;7.964;2023-12-20T02:08:39;6.10;92.60
4840;DHT22;2434;48.486;7.964;2023-12-20T02:11:07;6.10;92.60
4840;DHT22;2434;48.486;7.964;2023-12-20T02:13:35;6.20;92.70
4840;DHT22;2434;48.486;7.964;2023-12-20T02:16:04;6.20;92.70
4840;DHT22;2434;48.486;7.964;2023-12-20T02:18:34;6.20;92.90
4840;DHT22;2434;48.486;7.964;2023-12-20T02:21:05;6.20;93.00
4840;DHT22;2434;48.486;7.964;2023-12-20T02:23:34;6.10;93.30
4840;DHT22;2434;48.486;7.964;2023-12-20T02:26:03;6.20;93.70
4840;DHT22;2434;48.486;7.964;2023-12-20T02:28:33;6.20;93.60
4840;DHT22;2434;48.486;7.964;2023-12-20T02:31:02;6.20;93.70
4840;DHT22;2434;48.486;7.964;2023-12-20T02:33:31;6.20;93.80
4840;DHT22;2434;48.486;7.964;2023-12-20T02:35:59;6.20;93.90
4840;DHT22;2434;48.486;7.964;2023-12-20T02:38:26;6.20;93.90
4840;DHT22;2434;48.486;7.964;2023-12-20T02:40:56;6.20;93.90
4840;DHT22;2434;48.486;7.964;2023-12-20T02:43:24;6.20;94.10
4840;DHT22;2434;48.486;7.964;2023-12-20T02:45:52;6.30;94.40
4840;DHT22;2434;48.486;7.964;2023-12-20T02:48:20;6.30;94.50
4840;DHT22;2434;48.486;7.964;2023-12-20T02:50:48;6.30;94.30
4840;DHT22;2434;48.486;7.964;2023-12-20T02:53:16;6.30;94.50
4840;DHT22;2434;48.486;7.964;2023-12-20T02:55:44;6.30;94.40
4840;DHT22;2434;48.486;7.964;2023-12-20T02:58:14;6.30;94.50
4840;DHT22;2434;48.486;7.964;2023-12-20T03:00:42;6.30;94.60
4840;DHT22;2434;48.486;7.964;2023-12-20T03:03:11;6.30;94.60
4840;DHT22;2434;48.486;7.964;2023-12-20T03:05:38;6.30;94.50
4840;DHT22;2434;48.486;7.964;2023-12-20T03:08:06;6.30;94.50
4840;DHT22;2434;48.486;7.964;2023-12-20T03:10:34;6.30;94.60
4840;DHT22;2434;48.486;7.964;2023-12-20T03:13:03;6.40;94.60
4840;DHT22;2434;48.486;7.964;2023-12-20T03:15:32;6.40;94.60
4840;DHT22;2434;48.486;7.964;2023-12-20T03:18:00;6.40;94.40
4840;DHT22;2434;48.486;7.964;2023-12-20T03:20:29;6.40;94.40
4840;DHT22;2434;48.486;7.964;2023-12-20T03:23:00;6.40;94.40
4840;DHT22;2434;48.486;7.964;2023-12-20T03:25:28;6.40;94.40
4840;DHT22;2434;48.486;7.964;2023-12-20T03:27:56;6.40;94.30
4840;DHT22;2434;48.486;7.964;2023-12-20T03:30:24;6.40;94.40
4840;DHT22;2434;48.486;7.964;2023-12-20T03:32:54;6.40;94.30
4840;DHT22;2434;48.486;7.964;2023-12-20T03:35:22;6.40;94.20
4840;DHT22;2434;48.486;7.964;2023-12-20T03:37:50;6.40;94.30
4840;DHT22;2434;48.486;7.964;2023-12-20T03:40:18;6.40;94.30
4840;DHT22;2434;48.486;7.964;2023-12-20T03:42:46;6.40;94.10
4840;DHT22;2434;48.486;7.964;2023-12-20T03:45:15;6.40;94.00
4840;DHT22;2434;48.486;7.964;2023-12-20T03:47:43;6.40;94.00
4840;DHT22;2434;48.486;7.964;2023-12-20T03:50:13;6.40;93.90
4840;DHT22;2434;48.486;7.964;2023-12-20T03:52:41;6.40;93.90
4840;DHT22;2434;48.486;7.964;2023-12-20T03:55:09;6.40;94.00
4840;DHT22;2434;48.486;7.964;2023-12-20T03:57:37;6.40;94.30
4840;DHT22;2434;48.486;7.964;2023-12-20T04:00:07;6.40;94.10
4840;DHT22;2434;48.486;7.964;2023-12-20T04:02:41;6.40;94.10
4840;DHT22;2434;48.486;7.964;2023-12-20T04:05:10;6.40;94.40
4840;DHT22;2434;48.486;7.964;2023-12-20T04:07:39;6.40;94.30
4840;DHT22;2434;48.486;7.964;2023-12-20T04:10:08;6.40;94.40
4840;DHT22;2434;48.486;7.964;2023-12-20T04:12:36;6.40;94.40
4840;DHT22;2434;48.486;7.964;2023-12-20T04:15:05;6.40;94.60
4840;DHT22;2434;48.486;7.964;2023-12-20T04:17:36;6.40;94.30
4840;DHT22;2434;48.486;7.964;2023-12-20T04:20:05;6.40;94.20
4840;DHT22;2434;48.486;7.964;2023-12-20T04:22:34;6.40;94.20
4840;DHT22;2434;48.486;7.964;2023-12-20T04:25:04;6.40;94.30
4840;DHT22;2434;48.486;7.964;2023-12-20T04:27:32;6.40;94.40
4840;DHT22;2434;48.486;7.964;2023-12-20T04:30:00;6.40;94.40
4840;DHT22;2434;48.486;7.964;2023-12-20T04:32:28;6.40;94.40
4840;DHT22;2434;48.486;7.964;2023-12-20T04:34:56;6.40;94.40
4840;DHT22;2434;48.486;7.964;2023-12-20T04:37:24;6.40;94.50
4840;DHT22;2434;48.486;7.964;2023-12-20T04:39:53;6.40;94.60
4840;DHT22;2434;48.486;7.964;2023-12-20T04:42:23;6.40;94.60
4840;DHT22;2434;48.486;7.964;2023-12-20T04:44:51;6.40;94.40
4840;DHT22;2434;48.486;7.964;2023-12-20T04:47:19;6.40;94.30
4840;DHT22;2434;48.486;7.964;2023-12-20T04:49:47;6.40;94.30
4840;DHT22;2434;48.486;7.964;2023-12-20T04:52:15;6.40;94.30
4840;DHT22;2434;48.486;7.964;2023-12-20T04:54:43;6.40;94.20
4840;DHT22;2434;48.486;7.964;2023-12-20T04:57:12;6.40;94.30
4840;DHT22;2434;48.486;7.964;2023-12-20T04:59:41;6.50;94.20
4840;DHT22;2434;48.486;7.964;2023-12-20T05:02:09;6.50;94.20
4840;DHT22;2434;48.486;7.964;2023-12-20T05:04:38;6.50;94.10
4840;DHT22;2434;48.486;7.964;2023-12-20T05:07:06;6.50;94.00
4840;DHT22;2434;48.486;7.964;2023-12-20T05:09:34;6.50;94.00
4840;DHT22;2434;48.486;7.964;2023-12-20T05:12:03;6.50;93.90
4840;DHT22;2434;48.486;7.964;2023-12-20T05:14:31;6.50;93.90
4840;DHT22;2434;48.486;7.964;2023-12-20T05:17:01;6.50;93.90
4840;DHT22;2434;48.486;7.964;2023-12-20T05:19:30;6.50;93.80
4840;DHT22;2434;48.486;7.964;2023-12-20T05:21:58;6.50;93.70
4840;DHT22;2434;48.486;7.964;2023-12-20T05:24:26;6.50;93.70
4840;DHT22;2434;48.486;7.964;2023-12-20T05:26:54;6.50;93.70
4840;DHT22;2434;48.486;7.964;2023-12-20T05:29:23;6.50;93.50
4840;DHT22;2434;48.486;7.964;2023-12-20T05:31:51;6.50;93.50
4840;DHT22;2434;48.486;7.964;2023-12-20T05:34:20;6.50;93.50
4840;DHT22;2434;48.486;7.964;2023-12-20T05:36:48;6.50;93.50
4840;DHT22;2434;48.486;7.964;2023-12-20T05:39:16;6.50;93.50
4840;DHT22;2434;48.486;7.964;2023-12-20T05:41:45;6.50;93.50
4840;DHT22;2434;48.486;7.964;2023-12-20T05:44:13;6.50;93.40
4840;DHT22;2434;48.486;7.964;2023-12-20T05:46:41;6.50;93.40
4840;DHT22;2434;48.486;7.964;2023-12-20T05:49:09;6.50;94.10
4840;DHT22;2434;48.486;7.964;2023-12-20T05:51:39;6.50;93.20
4840;DHT22;2434;48.486;7.964;2023-12-20T05:54:09;6.50;93.20
4840;DHT22;2434;48.486;7.964;2023-12-20T05:56:37;6.50;93.10
4840;DHT22;2434;48.486;7.964;2023-12-20T05:59:05;6.50;93.10
4840;DHT22;2434;48.486;7.964;2023-12-20T06:01:33;6.50;93.20
4840;DHT22;2434;48.486;7.964;2023-12-20T06:04:01;6.50;93.30
4840;DHT22;2434;48.486;7.964;2023-12-20T06:06:30;6.50;93.30
4840;DHT22;2434;48.486;7.964;2023-12-20T06:08:59;6.50;93.30
4840;DHT22;2434;48.486;7.964;2023-12-20T06:11:29;6.50;93.30
4840;DHT22;2434;48.486;7.964;2023-12-20T06:13:57;6.50;93.30
4840;DHT22;2434;48.486;7.964;2023-12-20T06:16:25;6.50;93.30
4840;DHT22;2434;48.486;7.964;2023-12-20T06:18:53;6.50;93.40
4840;DHT22;2434;48.486;7.964;2023-12-20T06:21:22;6.40;93.60
4840;DHT22;2434;48.486;7.964;2023-12-20T06:23:50;6.50;94.10
4840;DHT22;2434;48.486;7.964;2023-12-20T06:26:19;6.50;94.30
4840;DHT22;2434;48.486;7.964;2023-12-20T06:28:47;6.50;94.20
4840;DHT22;2434;48.486;7.964;2023-12-20T06:31:15;6.50;94.20
4840;DHT22;2434;48.486;7.964;2023-12-20T06:33:43;6.50;94.20
4840;DHT22;2434;48.486;7.964;2023-12-20T06:36:11;6.50;94.30
4840;DHT22;2434;48.486;7.964;2023-12-20T06:38:40;6.50;94.30
4840;DHT22;2434;48.486;7.964;2023-12-20T06:41:13;6.50;94.20
4840;DHT22;2434;48.486;7.964;2023-12-20T06:43:43;6.50;94.20
4840;DHT22;2434;48.486;7.964;2023-12-20T06:46:16;6.50;94.30
4840;DHT22;2434;48.486;7.964;2023-12-20T06:48:45;6.50;94.30
4840;DHT22;2434;48.486;7.964;2023-12-20T06:51:15;6.50;94.10
4840;DHT22;2434;48.486;7.964;2023-12-20T06:53:43;6.50;94.10
4840;DHT22;2434;48.486;7.964;2023-12-20T06:56:11;6.50;94.00
4840;DHT22;2434;48.486;7.964;2023-12-20T06:58:45;6.50;94.00
4840;DHT22;2434;48.486;7.964;2023-12-20T07:01:14;6.40;94.00
4840;DHT22;2434;48.486;7.964;2023-12-20T07:03:43;6.50;94.40
4840;DHT22;2434;48.486;7.964;2023-12-20T07:06:11;6.50;94.30
4840;DHT22;2434;48.486;7.964;2023-12-20T07:08:40;6.50;94.30
4840;DHT22;2434;48.486;7.964;2023-12-20T07:11:08;6.40;94.30
4840;DHT22;2434;48.486;7.964;2023-12-20T07:13:36;6.40;94.40
4840;DHT22;2434;48.486;7.964;2023-12-20T07:16:07;6.50;94.50
4840;DHT22;2434;48.486;7.964;2023-12-20T07:18:35;6.50;94.40
4840;DHT22;2434;48.486;7.964;2023-12-20T07:21:03;6.50;94.40
4840;DHT22;2434;48.486;7.964;2023-12-20T07:23:31;6.50;94.50
4840;DHT22;2434;48.486;7.964;2023-12-20T07:25:59;6.50;94.40
4840;DHT22;2434;48.486;7.964;2023-12-20T07:28:27;6.50;94.50
4840;DHT22;2434;48.486;7.964;2023-12-20T07:30:55;6.50;94.40
4840;DHT22;2434;48.486;7.964;2023-12-20T07:33:25;6.50;94.20
4840;DHT22;2434;48.486;7.964;2023-12-20T07:35:53;6.50;94.30
4840;DHT22;2434;48.486;7.964;2023-12-20T07:38:21;6.50;94.20
4840;DHT22;2434;48.486;7.964;2023-12-20T07:40:49;6.50;94.10
4840;DHT22;2434;48.486;7.964;2023-12-20T07:43:17;6.60;93.90
4840;DHT22;2434;48.486;7.964;2023-12-20T07:45:45;6.60;93.70
4840;DHT22;2434;48.486;7.964;2023-12-20T07:48:14;6.60;93.50
4840;DHT22;2434;48.486;7.964;2023-12-20T07:50:44;6.60;93.30
4840;DHT22;2434;48.486;7.964;2023-12-20T07:53:12;6.60;93.20
4840;DHT22;2434;48.486;7.964;2023-12-20T07:55:40;6.60;93.00
4840;DHT22;2434;48.486;7.964;2023-12-20T07:58:08;6.60;92.80
4840;DHT22;2434;48.486;7.964;2023-12-20T08:00:36;6.60;92.80
4840;DHT22;2434;48.486;7.964;2023-12-20T08:03:04;6.60;92.70
4840;DHT22;2434;48.486;7.964;2023-12-20T08:05:33;6.60;92.70
4840;DHT22;2434;48.486;7.964;2023-12-20T08:08:03;6.60;92.70
4840;DHT22;2434;48.486;7.964;2023-12-20T08:10:31;6.70;92.50
4840;DHT22;2434;48.486;7.964;2023-12-20T08:12:59;6.70;92.10
4840;DHT22;2434;48.486;7.964;2023-12-20T08:15:28;6.70;91.60
4840;DHT22;2434;48.486;7.964;2023-12-20T08:17:56;6.60;91.20
4840;DHT22;2434;48.486;7.964;2023-12-20T08:20:24;6.60;91.10
4840;DHT22;2434;48.486;7.964;2023-12-20T08:23:07;6.60;90.90
4840;DHT22;2434;48.486;7.964;2023-12-20T08:25:35;6.60;90.80
4840;DHT22;2434;48.486;7.964;2023-12-20T08:28:03;6.60;90.70
4840;DHT22;2434;48.486;7.964;2023-12-20T08:30:32;6.60;90.70
4840;DHT22;2434;48.486;7.964;2023-12-20T08:33:00;6.60;90.70
4840;DHT22;2434;48.486;7.964;2023-12-20T08:35:29;6.60;90.70
4840;DHT22;2434;48.486;7.964;2023-12-20T08:37:57;6.60;90.60
4840;DHT22;2434;48.486;7.964;2023-12-20T08:40:26;6.60;90.50
4840;DHT22;2434;48.486;7.964;2023-12-20T08:42:54;6.60;90.40
4840;DHT22;2434;48.486;7.964;2023-12-20T08:45:22;6.60;90.50
4840;DHT22;2434;48.486;7.964;2023-12-20T08:47:51;6.60;90.40
4840;DHT22;2434;48.486;7.964;2023-12-20T08:50:19;6.60;90.30
4840;DHT22;2434;48.486;7.964;2023-12-20T08:52:48;6.60;90.30
4840;DHT22;2434;48.486;7.964;2023-12-20T08:55:16;6.60;90.40
4840;DHT22;2434;48.486;7.964;2023-12-20T08:57:46;6.60;90.50
4840;DHT22;2434;48.486;7.964;2023-12-20T09:00:15;6.60;90.60
4840;DHT22;2434;48.486;7.964;2023-12-20T09:02:43;6.60;90.60
4840;DHT22;2434;48.486;7.964;2023-12-20T09:05:11;6.60;90.70
4840;DHT22;2434;48.486;7.964;2023-12-20T09:07:39;6.60;90.80
4840;DHT22;2434;48.486;7.964;2023-12-20T09:10:08;6.60;90.70
4840;DHT22;2434;48.486;7.964;2023-12-20T09:12:36;6.60;90.70
4840;DHT22;2434;48.486;7.964;2023-12-20T09:15:08;6.60;90.50
4840;DHT22;2434;48.486;7.964;2023-12-20T09:17:36;6.60;90.40
4840;DHT22;2434;48.486;7.964;2023-12-20T09:20:05;6.60;90.30
4840;DHT22;2434;48.486;7.964;2023-12-20T09:22:35;6.60;90.10
4840;DHT22;2434;48.486;7.964;2023-12-20T09:25:05;6.60;89.90
4840;DHT22;2434;48.486;7.964;2023-12-20T09:27:33;6.60;89.40
4840;DHT22;2434;48.486;7.964;2023-12-20T09:30:02;6.50;88.20
4840;DHT22;2434;48.486;7.964;2023-12-20T09:32:32;6.50;87.20
4840;DHT22;2434;48.486;7.964;2023-12-20T09:35:02;6.50;86.20
4840;DHT22;2434;48.486;7.964;2023-12-20T09:37:32;6.50;85.30
4840;DHT22;2434;48.486;7.964;2023-12-20T09:40:00;6.50;84.40
4840;DHT22;2434;48.486;7.964;2023-12-20T09:42:33;6.50;83.20
4840;DHT22;2434;48.486;7.964;2023-12-20T09:45:08;6.50;81.40
4840;DHT22;2434;48.486;7.964;2023-12-20T09:47:39;6.40;80.50
4840;DHT22;2434;48.486;7.964;2023-12-20T09:50:08;6.50;80.70
4840;DHT22;2434;48.486;7.964;2023-12-20T09:52:39;6.40;81.00
4840;DHT22;2434;48.486;7.964;2023-12-20T09:55:08;6.50;81.50
4840;DHT22;2434;48.486;7.964;2023-12-20T09:57:36;6.50;81.90
4840;DHT22;2434;48.486;7.964;2023-12-20T10:00:06;6.50;81.60
4840;DHT22;2434;48.486;7.964;2023-12-20T10:02:45;6.50;81.30
4840;DHT22;2434;48.486;7.964;2023-12-20T10:05:17;6.50;80.20
4840;DHT22;2434;48.486;7.964;2023-12-20T10:07:46;6.50;79.90
4840;DHT22;2434;48.486;7.964;2023-12-20T10:10:15;6.50;77.80
4840;DHT22;2434;48.486;7.964;2023-12-20T10:13:02;6.50;74.20
4840;DHT22;2434;48.486;7.964;2023-12-20T10:15:31;6.50;71.50
4840;DHT22;2434;48.486;7.964;2023-12-20T10:18:01;6.50;71.30
4840;DHT22;2434;48.486;7.964;2023-12-20T10:20:30;6.50;70.50
4840;DHT22;2434;48.486;7.964;2023-12-20T10:22:59;6.50;68.90
4840;DHT22;2434;48.486;7.964;2023-12-20T10:25:28;6.50;69.20
4840;DHT22;2434;48.486;7.964;2023-12-20T10:28:09;6.50;69.30
4840;DHT22;2434;48.486;7.964;2023-12-20T10:30:38;6.50;69.70
4840;DHT22;2434;48.486;7.964;2023-12-20T10:33:09;6.50;70.50
4840;DHT22;2434;48.486;7.964;2023-12-20T10:35:39;6.50;70.60
4840;DHT22;2434;48.486;7.964;2023-12-20T10:38:12;6.50;70.30
4840;DHT22;2434;48.486;7.964;2023-12-20T10:40:41;6.50;70.30
4840;DHT22;2434;48.486;7.964;2023-12-20T10:43:11;6.50;71.20
4840;DHT22;2434;48.486;7.964;2023-12-20T10:45:41;6.50;71.10
4840;DHT22;2434;48.486;7.964;2023-12-20T10:48:12;6.50;70.60
4840;DHT22;2434;48.486;7.964;2023-12-20T10:50:41;6.50;71.00
4840;DHT22;2434;48.486;7.964;2023-12-20T10:53:09;6.50;71.00
4840;DHT22;2434;48.486;7.964;2023-12-20T10:55:39;6.50;70.50
4840;DHT22;2434;48.486;7.964;2023-12-20T10:58:08;6.50;69.80
4840;DHT22;2434;48.486;7.964;2023-12-20T11:00:39;6.50;68.70
4840;DHT22;2434;48.486;7.964;2023-12-20T11:03:09;6.60;68.70
4840;DHT22;2434;48.486;7.964;2023-12-20T11:05:45;6.50;68.50
4840;DHT22;2434;48.486;7.964;2023-12-20T11:08:20;6.50;68.30
4840;DHT22;2434;48.486;7.964;2023-12-20T11:10:58;6.50;68.10
4840;DHT22;2434;48.486;7.964;2023-12-20T11:13:31;6.60;68.60
4840;DHT22;2434;48.486;7.964;2023-12-20T11:16:01;6.60;68.40
4840;DHT22;2434;48.486;7.964;2023-12-20T11:18:30;6.60;68.80
4840;DHT22;2434;48.486;7.964;2023-12-20T11:21:02;6.60;69.60
4840;DHT22;2434;48.486;7.964;2023-12-20T11:23:32;6.60;70.20
4840;DHT22;2434;48.486;7.964;2023-12-20T11:26:02;6.60;70.10
4840;DHT22;2434;48.486;7.964;2023-12-20T11:28:30;6.60;70.50
4840;DHT22;2434;48.486;7.964;2023-12-20T11:31:00;6.60;70.10
4840;DHT22;2434;48.486;7.964;2023-12-20T11:33:30;6.60;70.40
4840;DHT22;2434;48.486;7.964;2023-12-20T11:35:59;6.60;70.30
4840;DHT22;2434;48.486;7.964;2023-12-20T11:38:36;6.60;69.30
4840;DHT22;2434;48.486;7.964;2023-12-20T11:41:05;6.60;69.40
4840;DHT22;2434;48.486;7.964;2023-12-20T11:43:37;6.60;70.10
4840;DHT22;2434;48.486;7.964;2023-12-20T11:46:07;6.70;69.90
4840;DHT22;2434;48.486;7.964;2023-12-20T11:48:38;6.70;70.10
4840;DHT22;2434;48.486;7.964;2023-12-20T11:51:09;6.70;69.60
4840;DHT22;2434;48.486;7.964;2023-12-20T11:53:39;6.70;70.30
4840;DHT22;2434;48.486;7.964;2023-12-20T11:56:09;6.70;70.30
4840;DHT22;2434;48.486;7.964;2023-12-20T11:58:38;6.70;70.60
4840;DHT22;2434;48.486;7.964;2023-12-20T12:01:06;6.70;70.40
4840;DHT22;2434;48.486;7.964;2023-12-20T12:03:36;6.70;69.70
4840;DHT22;2434;48.486;7.964;2023-12-20T12:06:04;6.70;69.00
4840;DHT22;2434;48.486;7.964;2023-12-20T12:08:33;6.70;68.00
4840;DHT22;2434;48.486;7.964;2023-12-20T12:11:02;6.80;67.20
4840;DHT22;2434;48.486;7.964;2023-12-20T12:13:30;6.80;67.30
4840;DHT22;2434;48.486;7.964;2023-12-20T12:15:59;6.70;66.80
4840;DHT22;2434;48.486;7.964;2023-12-20T12:18:27;6.70;66.80
4840;DHT22;2434;48.486;7.964;2023-12-20T12:21:00;6.80;66.00
4840;DHT22;2434;48.486;7.964;2023-12-20T12:23:38;6.80;65.40
4840;DHT22;2434;48.486;7.964;2023-12-20T12:26:08;6.70;65.70
4840;DHT22;2434;48.486;7.964;2023-12-20T12:28:39;6.70;65.90
4840;DHT22;2434;48.486;7.964;2023-12-20T12:31:08;6.70;65.90
4840;DHT22;2434;48.486;7.964;2023-12-20T12:33:36;6.70;66.10
4840;DHT22;2434;48.486;7.964;2023-12-20T12:36:05;6.70;66.30
4840;DHT22;2434;48.486;7.964;2023-12-20T12:38:34;6.70;65.80
4840;DHT22;2434;48.486;7.964;2023-12-20T12:41:04;6.70;65.70
4840;DHT22;2434;48.486;7.964;2023-12-20T12:43:33;6.80;66.10
4840;DHT22;2434;48.486;7.964;2023-12-20T12:46:03;6.70;65.80
4840;DHT22;2434;48.486;7.964;2023-12-20T12:48:31;6.80;66.40
4840;DHT22;2434;48.486;7.964;2023-12-20T12:51:00;6.80;66.00
4840;DHT22;2434;48.486;7.964;2023-12-20T12:53:28;6.80;65.50
4840;DHT22;2434;48.486;7.964;2023-12-20T12:55:56;6.80;65.80
4840;DHT22;2434;48.486;7.964;2023-12-20T12:58:24;6.80;65.60
4840;DHT22;2434;48.486;7.964;2023-12-20T13:00:54;6.80;64.80
4840;DHT22;2434;48.486;7.964;2023-12-20T13:03:22;6.70;65.20
4840;DHT22;2434;48.486;7.964;2023-12-20T13:05:50;6.70;65.70
4840;DHT22;2434;48.486;7.964;2023-12-20T13:08:19;6.70;66.30
4840;DHT22;2434;48.486;7.964;2023-12-20T13:10:47;6.70;66.40
4840;DHT22;2434;48.486;7.964;2023-12-20T13:13:15;6.80;66.30
4840;DHT22;2434;48.486;7.964;2023-12-20T13:15:43;6.80;65.10
4840;DHT22;2434;48.486;7.964;2023-12-20T13:18:18;6.80;65.10
4840;DHT22;2434;48.486;7.964;2023-12-20T13:20:47;6.70;65.30
4840;DHT22;2434;48.486;7.964;2023-12-20T13:23:15;6.80;65.90
4840;DHT22;2434;48.486;7.964;2023-12-20T13:25:45;6.80;65.70
4840;DHT22;2434;48.486;7.964;2023-12-20T13:28:13;6.80;66.40
4840;DHT22;2434;48.486;7.964;2023-12-20T13:30:41;6.80;66.30
4840;DHT22;2434;48.486;7.964;2023-12-20T13:33:11;6.80;66.60
4840;DHT22;2434;48.486;7.964;2023-12-20T13:35:40;6.80;67.50
4840;DHT22;2434;48.486;7.964;2023-12-20T13:38:08;6.80;67.20
4840;DHT22;2434;48.486;7.964;2023-12-20T13:40:36;6.80;67.50
4840;DHT22;2434;48.486;7.964;2023-12-20T13:43:04;6.80;67.60
4840;DHT22;2434;48.486;7.964;2023-12-20T13:45:33;6.80;67.50
4840;DHT22;2434;48.486;7.964;2023-12-20T13:48:00;6.80;67.40
4840;DHT22;2434;48.486;7.964;2023-12-20T13:50:29;6.80;67.40
4840;DHT22;2434;48.486;7.964;2023-12-20T13:52:59;6.80;66.70
4840;DHT22;2434;48.486;7.964;2023-12-20T13:55:27;6.80;66.50
4840;DHT22;2434;48.486;7.964;2023-12-20T13:57:56;6.80;66.60
4840;DHT22;2434;48.486;7.964;2023-12-20T14:00:25;6.80;66.20
4840;DHT22;2434;48.486;7.964;2023-12-20T14:02:53;6.80;66.40
4840;DHT22;2434;48.486;7.964;2023-12-20T14:05:21;6.80;66.70
4840;DHT22;2434;48.486;7.964;2023-12-20T14:07:54;6.80;66.90
4840;DHT22;2434;48.486;7.964;2023-12-20T14:10:26;6.90;67.10
4840;DHT22;2434;48.486;7.964;2023-12-20T14:12:54;6.80;67.20
4840;DHT22;2434;48.486;7.964;2023-12-20T14:15:23;6.80;67.40
4840;DHT22;2434;48.486;7.964;2023-12-20T14:17:52;6.90;67.70
4840;DHT22;2434;48.486;7.964;2023-12-20T14:20:21;6.80;67.60
4840;DHT22;2434;48.486;7.964;2023-12-20T14:22:50;6.80;67.60
4840;DHT22;2434;48.486;7.964;2023-12-20T14:25:18;6.80;67.50
4840;DHT22;2434;48.486;7.964;2023-12-20T14:27:47;6.80;68.00
4840;DHT22;2434;48.486;7.964;2023-12-20T14:30:16;6.80;68.00
4840;DHT22;2434;48.486;7.964;2023-12-20T14:32:44;6.80;67.90
4840;DHT22;2434;48.486;7.964;2023-12-20T14:35:13;6.80;68.00
4840;DHT22;2434;48.486;7.964;2023-12-20T14:37:41;6.80;68.70
4840;DHT22;2434;48.486;7.964;2023-12-20T14:40:10;6.80;69.30
4840;DHT22;2434;48.486;7.964;2023-12-20T14:42:43;6.80;69.40
4840;DHT22;2434;48.486;7.964;2023-12-20T14:45:14;6.80;68.70
4840;DHT22;2434;48.486;7.964;2023-12-20T14:47:42;6.80;69.10
4840;DHT22;2434;48.486;7.964;2023-12-20T14:50:12;6.80;69.10
4840;DHT22;2434;48.486;7.964;2023-12-20T14:52:45;6.80;69.30
4840;DHT22;2434;48.486;7.964;2023-12-20T14:55:14;6.80;69.60
4840;DHT22;2434;48.486;7.964;2023-12-20T14:57:42;6.80;69.60
4840;DHT22;2434;48.486;7.964;2023-12-20T15:00:12;6.80;69.80
4840;DHT22;2434;48.486;7.964;2023-12-20T15:02:43;6.80;69.60
4840;DHT22;2434;48.486;7.964;2023-12-20T15:05:11;6.80;69.90
4840;DHT22;2434;48.486;7.964;2023-12-20T15:07:41;6.80;70.00
4840;DHT22;2434;48.486;7.964;2023-12-20T15:10:09;6.80;70.30
4840;DHT22;2434;48.486;7.964;2023-12-20T15:12:38;6.80;70.60
4840;DHT22;2434;48.486;7.964;2023-12-20T15:15:07;6.70;70.80
4840;DHT22;2434;48.486;7.964;2023-12-20T15:17:37;6.70;71.00
4840;DHT22;2434;48.486;7.964;2023-12-20T15:20:06;6.70;70.90
4840;DHT22;2434;48.486;7.964;2023-12-20T15:22:37;6.70;71.30
4840;DHT22;2434;48.486;7.964;2023-12-20T15:25:07;6.70;71.90
4840;DHT22;2434;48.486;7.964;2023-12-20T15:27:36;6.70;72.20
4840;DHT22;2434;48.486;7.964;2023-12-20T15:30:06;6.70;72.50
4840;DHT22;2434;48.486;7.964;2023-12-20T15:32:38;6.70;72.30
4840;DHT22;2434;48.486;7.964;2023-12-20T15:35:07;6.80;72.20
4840;DHT22;2434;48.486;7.964;2023-12-20T15:37:38;6.70;72.00
4840;DHT22;2434;48.486;7.964;2023-12-20T15:40:08;6.70;72.50
4840;DHT22;2434;48.486;7.964;2023-12-20T15:42:38;6.80;72.00
4840;DHT22;2434;48.486;7.964;2023-12-20T15:45:07;6.80;72.10
4840;DHT22;2434;48.486;7.964;2023-12-20T15:47:36;6.70;72.30
4840;DHT22;2434;48.486;7.964;2023-12-20T15:50:06;6.80;72.50
4840;DHT22;2434;48.486;7.964;2023-12-20T15:52:35;6.80;72.00
4840;DHT22;2434;48.486;7.964;2023-12-20T15:55:05;6.80;72.30
4840;DHT22;2434;48.486;7.964;2023-12-20T15:57:34;6.80;72.30
4840;DHT22;2434;48.486;7.964;2023-12-20T16:00:18;6.80;72.50
4840;DHT22;2434;48.486;7.964;2023-12-20T16:02:46;6.80;73.00
4840;DHT22;2434;48.486;7.964;2023-12-20T16:05:16;6.80;72.60
4840;DHT22;2434;48.486;7.964;2023-12-20T16:07:45;6.80;72.60
4840;DHT22;2434;48.486;7.964;2023-12-20T16:10:13;6.80;72.30
4840;DHT22;2434;48.486;7.964;2023-12-20T16:12:42;6.80;72.60
4840;DHT22;2434;48.486;7.964;2023-12-20T16:15:10;6.70;72.60
4840;DHT22;2434;48.486;7.964;2023-12-20T16:17:38;6.70;73.00
4840;DHT22;2434;48.486;7.964;2023-12-20T16:20:07;6.60;73.50
4840;DHT22;2434;48.486;7.964;2023-12-20T16:22:39;6.70;73.50
4840;DHT22;2434;48.486;7.964;2023-12-20T16:25:07;6.70;73.80
4840;DHT22;2434;48.486;7.964;2023-12-20T16:27:37;6.60;73.20
4840;DHT22;2434;48.486;7.964;2023-12-20T16:30:07;6.60;73.00